createdAt,value
2022-09-26T00:01:21.013Z,94290
2022-09-26T00:04:46.329Z,94285
2022-09-26T00:08:11.753Z,94289
2022-09-26T00:11:37.235Z,94293
2022-09-26T00:15:02.614Z,94288
2022-09-26T00:18:28.033Z,94290
2022-09-26T00:21:53.539Z,94287
2022-09-26T00:25:18.919Z,94285
2022-09-26T00:28:44.319Z,94271
2022-09-26T00:32:09.727Z,94273
2022-09-26T00:35:35.118Z,94276
2022-09-26T00:39:00.587Z,94270
2022-09-26T00:42:25.980Z,94273
2022-09-26T00:45:51.491Z,94270
2022-09-26T00:49:16.917Z,94272
2022-09-26T00:52:42.317Z,94273
2022-09-26T00:56:07.778Z,94276
2022-09-26T00:59:33.150Z,94276
2022-09-26T01:02:58.570Z,94274
2022-09-26T01:06:24.050Z,94270
2022-09-26T01:09:49.418Z,94269
2022-09-26T01:13:14.799Z,94267
2022-09-26T01:16:40.255Z,94263
2022-09-26T01:20:05.599Z,94263
2022-09-26T01:23:31.005Z,94253
2022-09-26T01:26:56.382Z,94248
2022-09-26T01:30:21.801Z,94247
2022-09-26T01:33:47.269Z,94246
2022-09-26T01:37:12.808Z,94247
2022-09-26T01:40:38.267Z,94236
2022-09-26T01:44:03.603Z,94232
2022-09-26T01:47:29.060Z,94244
2022-09-26T01:50:54.476Z,94244
2022-09-26T01:54:19.856Z,94245
2022-09-26T01:57:45.300Z,94244
2022-09-26T02:01:10.899Z,94241
2022-09-26T02:04:36.257Z,94244
2022-09-26T02:08:01.684Z,94239
2022-09-26T02:11:27.088Z,94238
2022-09-26T02:14:52.664Z,94236
2022-09-26T02:18:18.032Z,94231
2022-09-26T02:21:43.491Z,94224
2022-09-26T02:25:08.894Z,94223
2022-09-26T02:28:34.284Z,94220
2022-09-26T02:31:59.891Z,94219
2022-09-26T02:35:25.082Z,94215
2022-09-26T02:38:50.512Z,94216
2022-09-26T02:42:15.881Z,94211
2022-09-26T02:45:41.413Z,94207
2022-09-26T02:49:06.827Z,94206
2022-09-26T02:52:32.212Z,94193
2022-09-26T02:55:57.724Z,94185
2022-09-26T02:59:23.147Z,94190
2022-09-26T03:02:48.520Z,94189
2022-09-26T03:06:13.936Z,94187
2022-09-26T03:09:39.394Z,94190
2022-09-26T03:13:04.809Z,94186
2022-09-26T03:16:30.241Z,94186
2022-09-26T03:19:55.583Z,94184
2022-09-26T03:23:21.096Z,94187
2022-09-26T03:26:46.437Z,94184
2022-09-26T03:30:11.878Z,94179
2022-09-26T03:33:37.265Z,94180
2022-09-26T03:37:02.789Z,94178
2022-09-26T03:40:28.325Z,94180
2022-09-26T03:43:53.590Z,94175
2022-09-26T03:47:18.995Z,94181
2022-09-26T03:50:44.374Z,94177
2022-09-26T03:54:09.807Z,94173
2022-09-26T03:57:35.238Z,94165
2022-09-26T04:01:00.731Z,94167
2022-09-26T04:04:26.094Z,94159
2022-09-26T04:07:51.604Z,94162
2022-09-26T04:11:16.986Z,94158
2022-09-26T04:14:42.428Z,94154
2022-09-26T04:18:07.839Z,94150
2022-09-26T04:21:33.211Z,94150
2022-09-26T04:24:58.667Z,94149
2022-09-26T04:28:24.108Z,94142
2022-09-26T04:31:49.681Z,94145
2022-09-26T04:35:14.938Z,94134
2022-09-26T04:38:40.441Z,94131
2022-09-26T04:42:05.857Z,94125
2022-09-26T04:45:31.293Z,94130
2022-09-26T04:48:56.757Z,94131
2022-09-26T04:52:22.070Z,94131
2022-09-26T04:55:47.484Z,94126
2022-09-26T04:59:12.951Z,94125
2022-09-26T05:02:38.445Z,94128
2022-09-26T05:06:03.949Z,94126
2022-09-26T05:09:32.943Z,94122
2022-09-26T05:12:54.852Z,94124
2022-09-26T05:16:20.242Z,94129
2022-09-26T05:19:45.702Z,94130
2022-09-26T05:23:11.178Z,94129
2022-09-26T05:26:36.643Z,94123
2022-09-26T05:30:02.066Z,94124
2022-09-26T05:33:27.514Z,94123
2022-09-26T05:36:52.907Z,94117
2022-09-26T05:40:18.537Z,94120
2022-09-26T05:43:43.828Z,94112
2022-09-26T05:47:09.361Z,94115
2022-09-26T05:50:34.692Z,94112
2022-09-26T05:54:00.148Z,94106
2022-09-26T05:57:25.604Z,94107
2022-09-26T06:00:51.054Z,94111
2022-09-26T06:04:16.463Z,94100
2022-09-26T06:07:41.901Z,94104
2022-09-26T06:11:07.358Z,94102
2022-09-26T06:14:32.798Z,94102
2022-09-26T06:17:58.244Z,94098
2022-09-26T06:21:23.634Z,94106
2022-09-26T06:24:49.026Z,94106
2022-09-26T06:28:14.471Z,94107
2022-09-26T06:31:40.090Z,94106
2022-09-26T06:35:05.305Z,94108
2022-09-26T06:38:30.713Z,94099
2022-09-26T06:41:56.160Z,94098
2022-09-26T06:45:21.583Z,94094
2022-09-26T06:48:47.093Z,94093
2022-09-26T06:52:12.477Z,94095
2022-09-26T06:55:37.923Z,94091
2022-09-26T06:59:03.351Z,94085
2022-09-26T07:02:28.855Z,94085
2022-09-26T07:05:54.765Z,94081
2022-09-26T07:09:20.275Z,94083
2022-09-26T07:12:45.577Z,94084
2022-09-26T07:16:11.097Z,94081
2022-09-26T07:19:36.453Z,94084
2022-09-26T07:23:01.991Z,94081
2022-09-26T07:26:27.301Z,94081
2022-09-26T07:29:52.742Z,94075
2022-09-26T07:33:18.213Z,94076
2022-09-26T07:36:43.690Z,94076
2022-09-26T07:40:09.173Z,94081
2022-09-26T07:47:00.164Z,94081
2022-09-26T07:50:25.483Z,94081
2022-09-26T07:53:50.932Z,94076
2022-09-26T07:57:16.377Z,94072
2022-09-26T08:00:41.771Z,94068
2022-09-26T08:04:07.329Z,94075
2022-09-26T08:07:32.643Z,94068
2022-09-26T08:11:02.935Z,94066
2022-09-26T08:14:23.597Z,94067
2022-09-26T08:17:49.031Z,94068
2022-09-26T08:21:14.500Z,94069
2022-09-26T08:24:39.952Z,94067
2022-09-26T08:28:05.356Z,94071
2022-09-26T08:31:30.913Z,94068
2022-09-26T08:34:56.174Z,94061
2022-09-26T08:38:21.623Z,94056
2022-09-26T08:41:47.049Z,94061
2022-09-26T08:45:12.501Z,94061
2022-09-26T08:48:37.964Z,94053
2022-09-26T08:52:03.343Z,94059
2022-09-26T08:55:28.767Z,94062
2022-09-26T08:58:54.435Z,94059
2022-09-26T09:02:20.042Z,94066
2022-09-26T09:05:45.402Z,94061
2022-09-26T09:09:10.814Z,94061
2022-09-26T09:12:36.245Z,94059
2022-09-26T09:16:01.771Z,94055
2022-09-26T09:19:27.135Z,94064
2022-09-26T09:22:52.636Z,94060
2022-09-26T09:29:48.858Z,94056
2022-09-26T09:33:08.860Z,94043
2022-09-26T09:36:34.280Z,94044
2022-09-26T09:39:59.738Z,94040
2022-09-26T09:43:25.146Z,94032
2022-09-26T09:46:50.659Z,94034
2022-09-26T09:50:16.035Z,94034
2022-09-26T09:53:41.400Z,94038
2022-09-26T09:57:06.848Z,94035
2022-09-26T10:00:32.299Z,94024
2022-09-26T10:03:57.557Z,94032
2022-09-26T10:07:22.939Z,94025
2022-09-26T10:10:48.342Z,94025
2022-09-26T10:14:14.189Z,94024
2022-09-26T10:17:39.342Z,94021
2022-09-26T10:21:04.783Z,94022
2022-09-26T10:24:30.210Z,94015
2022-09-26T10:27:55.651Z,94011
2022-09-26T10:31:21.177Z,94008
2022-09-26T10:34:46.571Z,94007
2022-09-26T10:38:12.275Z,94008
2022-09-26T10:41:37.710Z,93987
2022-09-26T10:45:03.117Z,93984
2022-09-26T10:48:28.577Z,93979
2022-09-26T10:51:53.976Z,93980
2022-09-26T10:55:19.459Z,93978
2022-09-26T10:58:44.899Z,93970
2022-09-26T11:02:12.721Z,93963
2022-09-26T11:05:38.244Z,93964
2022-09-26T11:09:03.610Z,93974
2022-09-26T11:12:29.040Z,93952
2022-09-26T11:15:54.595Z,93946
2022-09-26T11:19:19.933Z,93945
2022-09-26T11:22:45.478Z,93945
2022-09-26T11:26:10.837Z,93939
2022-09-26T11:29:36.319Z,93938
2022-09-26T11:33:01.815Z,93936
2022-09-26T11:36:27.305Z,93930
2022-09-26T11:39:52.736Z,93917
2022-09-26T11:43:18.182Z,93919
2022-09-26T11:46:43.668Z,93912
2022-09-26T11:50:09.102Z,93902
2022-09-26T11:53:34.547Z,93892
2022-09-26T11:57:00.036Z,93890
2022-09-26T12:00:25.437Z,93886
2022-09-26T12:03:51.064Z,93883
2022-09-26T12:07:16.981Z,93880
2022-09-26T12:10:42.446Z,93873
2022-09-26T12:14:07.911Z,93873
2022-09-26T12:17:33.331Z,93887
2022-09-26T12:20:58.803Z,93874
2022-09-26T12:24:24.200Z,93866
2022-09-26T12:27:49.636Z,93866
2022-09-26T12:31:19.424Z,93869
2022-09-26T12:34:40.615Z,93869
2022-09-26T12:38:06.072Z,93871
2022-09-26T12:41:31.535Z,93859
2022-09-26T12:44:56.953Z,93846
2022-09-26T12:48:22.440Z,93844
2022-09-26T12:51:47.898Z,93833
2022-09-26T12:55:13.323Z,93838
2022-09-26T12:58:38.788Z,93835
2022-09-26T13:02:04.359Z,93834
2022-09-26T13:05:29.788Z,93821
2022-09-26T13:08:55.244Z,93820
2022-09-26T13:12:20.711Z,93814
2022-09-26T13:15:46.232Z,93812
2022-09-26T13:19:11.770Z,93802
2022-09-26T13:22:37.161Z,93805
2022-09-26T13:26:02.654Z,93795
2022-09-26T13:29:29.009Z,93794
2022-09-26T13:32:54.263Z,93790
2022-09-26T13:36:19.763Z,93783
2022-09-26T13:39:45.317Z,93778
2022-09-26T13:43:10.776Z,93776
2022-09-26T13:46:36.379Z,93777
2022-09-26T13:50:01.762Z,93774
2022-09-26T13:53:27.235Z,93763
2022-09-26T13:56:52.725Z,93770
2022-09-26T14:00:18.183Z,93767
2022-09-26T14:03:43.680Z,93762
2022-09-26T14:07:09.149Z,93749
2022-09-26T14:10:34.622Z,93748
2022-09-26T14:14:00.120Z,93732
2022-09-26T14:17:25.589Z,93721
2022-09-26T14:20:51.001Z,93722
2022-09-26T14:24:16.501Z,93728
2022-09-26T14:27:41.977Z,93721
2022-09-26T15:05:38.975Z,93706
2022-09-26T15:09:04.398Z,93701
2022-09-26T15:12:30.018Z,93708
2022-09-26T15:15:55.742Z,93714
2022-09-26T15:19:21.131Z,93710
2022-09-26T15:22:46.587Z,93711
2022-09-26T15:26:11.960Z,93712
2022-09-26T15:29:37.441Z,93713
2022-09-26T15:33:02.853Z,93705
2022-09-26T15:36:28.359Z,93706
2022-09-26T15:39:53.821Z,93705
2022-09-26T15:43:19.243Z,93691
2022-09-26T15:46:44.779Z,93687
2022-09-26T15:50:10.222Z,93678
2022-09-26T15:53:35.674Z,93670
2022-09-26T15:57:01.200Z,93665
2022-09-26T16:00:26.634Z,93656
2022-09-26T16:03:52.074Z,93653
2022-09-26T16:07:17.541Z,93644
2022-09-26T16:10:43.025Z,93637
2022-09-26T16:14:08.545Z,93644
2022-09-26T16:17:33.924Z,93647
2022-09-26T16:20:59.394Z,93641
2022-09-26T16:24:24.855Z,93640
2022-09-26T16:27:50.272Z,93638
2022-09-26T16:31:15.916Z,93635
2022-09-26T16:34:41.221Z,93636
2022-09-26T16:38:06.825Z,93636
2022-09-26T16:41:56.684Z,93621
2022-09-26T16:44:57.801Z,93622
2022-09-26T16:48:23.294Z,93623
2022-09-26T16:51:48.705Z,93625
2022-09-26T16:55:14.239Z,93624
2022-09-26T16:58:39.661Z,93621
2022-09-26T17:02:05.114Z,93617
2022-09-26T17:05:30.535Z,93611
2022-09-26T17:08:55.985Z,93603
2022-09-26T17:12:21.469Z,93601
2022-09-26T17:15:46.991Z,93603
2022-09-26T17:19:12.429Z,93608
2022-09-26T17:22:37.945Z,93606
2022-09-26T17:26:03.376Z,93603
2022-09-26T17:29:28.833Z,93602
2022-09-26T17:32:54.322Z,93607
2022-09-26T17:36:19.717Z,93607
2022-09-26T17:39:48.143Z,93600
2022-09-26T17:43:13.609Z,93600
2022-09-26T17:47:41.035Z,93599
2022-09-26T17:51:09.477Z,93598
2022-09-26T17:54:35.038Z,93595
2022-09-26T17:58:00.600Z,93597
2022-09-26T18:01:26.064Z,93587
2022-09-26T18:04:51.491Z,93581
2022-09-26T18:08:17.205Z,93585
2022-09-26T18:11:42.622Z,93582
2022-09-26T18:15:08.207Z,93585
2022-09-26T18:18:33.752Z,93584
2022-09-26T18:21:59.249Z,93584
2022-09-26T18:25:24.757Z,93579
2022-09-26T18:28:50.328Z,93571
2022-09-26T18:32:16.573Z,93564
2022-09-26T18:35:42.012Z,93563
2022-09-26T18:39:07.600Z,93559
2022-09-26T18:42:32.931Z,93561
2022-09-26T18:45:58.465Z,93568
2022-09-26T18:49:23.888Z,93564
2022-09-26T18:52:49.423Z,93566
2022-09-26T18:56:14.805Z,93563
2022-09-26T18:59:40.273Z,93558
2022-09-26T19:03:05.760Z,93549
2022-09-26T19:06:31.224Z,93547
2022-09-26T19:09:56.688Z,93542
2022-09-26T19:13:26.768Z,93539
2022-09-26T19:16:47.548Z,93541
2022-09-26T19:20:13.046Z,93537
2022-09-26T19:23:38.524Z,93537
2022-09-26T19:27:06.389Z,93528
2022-09-26T19:30:29.434Z,93519
2022-09-26T19:33:54.869Z,93514
2022-09-26T19:37:20.345Z,93518
2022-09-26T19:40:48.728Z,93510
2022-09-26T19:44:11.287Z,93503
2022-09-26T19:47:36.780Z,93497
2022-09-26T19:51:02.245Z,93489
2022-09-26T19:54:27.685Z,93487
2022-09-26T19:57:53.181Z,93486
2022-09-26T20:01:18.710Z,93480
2022-09-26T20:04:44.119Z,93471
2022-09-26T20:08:09.578Z,93469
2022-09-26T20:11:35.047Z,93470
2022-09-26T20:15:00.531Z,93473
2022-09-26T20:18:25.953Z,93474
2022-09-26T20:21:51.396Z,93468
2022-09-26T20:25:16.982Z,93459
2022-09-26T20:28:42.446Z,93460
2022-09-26T20:32:10.180Z,93454
2022-09-26T20:35:35.584Z,93450
2022-09-26T20:38:58.822Z,93447
2022-09-26T20:42:24.267Z,93439
2022-09-26T20:45:49.803Z,93428
2022-09-26T20:49:15.383Z,93424
2022-09-26T20:52:40.704Z,93411
2022-09-26T20:56:06.164Z,93415
2022-09-26T20:59:31.645Z,93405
2022-09-26T21:02:57.218Z,93406
2022-09-26T21:06:22.580Z,93396
2022-09-26T21:09:48.108Z,93391
2022-09-26T21:13:13.521Z,93387
2022-09-26T21:16:39.006Z,93392
2022-09-26T21:20:04.471Z,93384
2022-09-26T21:23:29.920Z,93375
2022-09-26T21:26:55.344Z,93366
2022-09-26T21:30:20.739Z,93355
2022-09-26T21:33:46.197Z,93349
2022-09-26T21:37:11.678Z,93344
2022-09-26T21:40:37.205Z,93335
2022-09-26T21:44:02.632Z,93332
2022-09-26T21:47:28.101Z,93328
2022-09-26T21:50:57.828Z,93319
2022-09-26T21:54:19.634Z,93313
2022-09-26T21:57:45.091Z,93308
2022-09-26T22:01:10.544Z,93304
2022-09-26T22:04:36.017Z,93294
2022-09-26T22:08:01.458Z,93295
2022-09-26T22:11:26.923Z,93291
2022-09-26T22:14:52.382Z,93279
2022-09-26T22:18:17.780Z,93271
2022-09-26T22:21:43.211Z,93275
2022-09-26T22:25:08.659Z,93270
2022-09-26T22:28:34.115Z,93269
2022-09-26T22:31:59.555Z,93263
2022-09-26T22:35:24.972Z,93254
2022-09-26T22:38:50.407Z,93251
2022-09-26T22:42:15.859Z,93248
2022-09-26T22:45:41.320Z,93249
2022-09-26T22:49:06.726Z,93247
2022-09-26T22:52:32.155Z,93244
2022-09-26T22:55:57.586Z,93249
2022-09-26T22:59:22.989Z,93244
2022-09-26T23:02:48.497Z,93236
2022-09-26T23:06:13.899Z,93226
2022-09-26T23:09:39.273Z,93220
2022-09-26T23:13:04.746Z,93218
2022-09-26T23:16:30.231Z,93211
2022-09-26T23:19:55.649Z,93209
2022-09-26T23:23:21.060Z,93201
2022-09-26T23:26:46.518Z,93200
2022-09-26T23:30:11.968Z,93199
2022-09-26T23:33:37.354Z,93196
2022-09-26T23:37:02.760Z,93188
2022-09-26T23:40:28.255Z,93194
2022-09-26T23:43:53.616Z,93185
2022-09-26T23:47:19.025Z,93177
2022-09-26T23:50:44.449Z,93171
2022-09-26T23:54:09.924Z,93165
2022-09-26T23:57:35.379Z,93163
